createdAt,value
2022-08-20T00:01:42.840Z,100170.16
2022-08-20T00:04:14.311Z,100174.33
2022-08-20T00:06:46.082Z,100180.39
2022-08-20T00:09:16.135Z,100181.73
2022-08-20T00:11:45.368Z,100178.93
2022-08-20T00:14:14.758Z,100181.16
2022-08-20T00:16:46.569Z,100182.00
2022-08-20T00:19:17.223Z,100182.84
2022-08-20T00:21:47.280Z,100184.75
2022-08-20T00:24:19.106Z,100180.82
2022-08-20T00:26:52.495Z,100180.82
2022-08-20T00:29:20.375Z,100178.91
2022-08-20T00:31:50.702Z,100183.94
2022-08-20T00:34:20.157Z,100180.58
2022-08-20T00:36:49.848Z,100192.25
2022-08-20T00:39:20.010Z,100188.92
2022-08-20T00:41:51.676Z,100192.28
2022-08-20T00:44:22.264Z,100195.84
2022-08-20T00:46:52.141Z,100195.22
2022-08-20T00:49:28.152Z,100194.81
2022-08-20T00:52:12.411Z,100199.18
2022-08-20T00:54:45.568Z,100201.38
2022-08-20T00:57:59.003Z,100204.19
2022-08-20T01:00:11.841Z,100208.67
2022-08-20T01:02:42.359Z,100202.59
2022-08-20T01:05:11.585Z,100192.70
2022-08-20T01:07:42.028Z,100199.33
2022-08-20T01:10:19.589Z,100198.66
2022-08-20T01:12:49.251Z,100198.89
2022-08-20T01:15:23.594Z,100189.40
2022-08-20T01:17:58.480Z,100185.47
2022-08-20T01:20:32.221Z,100186.83
2022-08-20T01:23:32.516Z,100189.05
2022-08-20T01:26:10.756Z,100186.83
2022-08-20T01:28:59.692Z,100185.44
2022-08-20T01:31:32.934Z,100181.01
2022-08-20T01:34:04.019Z,100180.43
2022-08-20T01:36:47.385Z,100183.20
2022-08-20T01:39:21.542Z,100182.63
2022-08-20T01:42:14.842Z,100176.47
2022-08-20T01:44:45.072Z,100178.95
2022-08-20T01:47:18.838Z,100173.38
2022-08-20T01:49:52.858Z,100174.47
2022-08-20T01:52:33.708Z,100171.69
2022-08-20T01:55:03.597Z,100166.39
2022-08-20T01:57:34.972Z,100163.59
2022-08-20T02:00:19.601Z,100164.45
2022-08-20T02:02:47.170Z,100168.59
2022-08-20T02:05:16.888Z,100169.66
2022-08-20T02:07:46.079Z,100174.12
2022-08-20T02:10:17.061Z,100172.18
2022-08-20T02:12:49.302Z,100175.22
2022-08-20T02:15:18.864Z,100172.73
2022-08-20T02:17:50.293Z,100175.22
2022-08-20T02:20:23.218Z,100179.35
2022-08-20T02:22:58.456Z,100184.06
2022-08-20T02:25:31.411Z,100179.03
2022-08-20T02:28:05.763Z,100179.87
2022-08-20T02:30:39.367Z,100179.29
2022-08-20T02:33:11.585Z,100177.58
2022-08-20T02:35:42.456Z,100170.34
2022-08-20T02:38:14.889Z,100166.15
2022-08-20T02:40:45.230Z,100171.16
2022-08-20T02:43:16.574Z,100167.02
2022-08-20T02:45:46.240Z,100163.44
2022-08-20T02:48:22.026Z,100172.31
2022-08-20T02:50:56.358Z,100171.25
2022-08-20T02:53:27.987Z,100169.60
2022-08-20T02:55:56.985Z,100176.28
2022-08-20T02:58:26.100Z,100170.77
2022-08-20T03:00:56.721Z,100174.15
2022-08-20T03:03:27.201Z,100174.20
2022-08-20T03:05:58.382Z,100182.02
2022-08-20T03:08:29.052Z,100174.53
2022-08-20T03:10:59.103Z,100171.75
2022-08-20T03:13:29.919Z,100175.91
2022-08-20T03:16:00.972Z,100173.72
2022-08-20T03:18:35.472Z,100187.61
2022-08-20T03:21:06.339Z,100178.69
2022-08-20T03:23:36.351Z,100181.47
2022-08-20T03:26:09.149Z,100176.72
2022-08-20T03:28:39.464Z,100182.83
2022-08-20T03:31:10.106Z,100183.37
2022-08-20T03:33:49.059Z,100180.60
2022-08-20T03:36:13.567Z,100179.47
2022-08-20T03:38:44.962Z,100179.70
2022-08-20T03:41:16.089Z,100181.64
2022-08-20T03:43:46.454Z,100184.16
2022-08-20T03:46:23.103Z,100185.55
2022-08-20T03:48:48.340Z,100178.08
2022-08-20T03:51:19.542Z,100177.24
2022-08-20T03:53:50.102Z,100177.47
2022-08-20T03:56:19.175Z,100179.41
2022-08-20T03:58:48.139Z,100182.22
2022-08-20T04:01:44.844Z,100185.32
2022-08-20T04:03:53.349Z,100185.32
2022-08-20T04:06:20.771Z,100188.94
2022-08-20T04:08:51.372Z,100184.22
2022-08-20T04:11:21.393Z,100180.89
2022-08-20T04:13:51.259Z,100178.64
2022-08-20T04:16:22.158Z,100174.70
2022-08-20T04:18:56.091Z,100177.53
2022-08-20T04:21:24.655Z,100177.59
2022-08-20T04:23:56.327Z,100186.80
2022-08-20T04:26:25.564Z,100186.80
2022-08-20T04:28:55.652Z,100184.31
2022-08-20T04:31:27.387Z,100186.80
2022-08-20T04:33:57.707Z,100179.82
2022-08-20T04:36:28.171Z,100185.12
2022-08-20T04:38:59.162Z,100187.66
2022-08-20T04:41:28.676Z,100188.02
2022-08-20T04:43:57.959Z,100187.17
2022-08-20T04:46:27.576Z,100186.08
2022-08-20T04:48:57.429Z,100185.55
2022-08-20T04:51:27.564Z,100176.14
2022-08-20T04:53:58.398Z,100173.97
2022-08-20T04:56:35.594Z,100169.08
2022-08-20T04:59:04.704Z,100169.10
2022-08-20T05:01:34.476Z,100166.30
2022-08-20T05:04:04.432Z,100168.75
2022-08-20T05:06:35.070Z,100172.98
2022-08-20T05:09:05.410Z,100169.41
2022-08-20T05:11:36.925Z,100171.98
2022-08-20T05:14:09.212Z,100167.28
2022-08-20T05:16:40.719Z,100170.66
2022-08-20T05:19:11.703Z,100162.95
2022-08-20T05:21:41.285Z,100169.13
2022-08-20T05:24:12.121Z,100161.64
2022-08-20T05:26:42.483Z,100158.92
2022-08-20T05:29:13.035Z,100153.14
2022-08-20T05:31:43.385Z,100154.28
2022-08-20T05:34:12.647Z,100148.73
2022-08-20T05:36:45.395Z,100144.58
2022-08-20T05:39:17.862Z,100138.52
2022-08-20T05:41:49.445Z,100139.38
2022-08-20T05:44:19.574Z,100133.83
2022-08-20T05:46:49.857Z,100140.55
2022-08-20T05:49:21.177Z,100131.39
2022-08-20T05:51:51.396Z,100132.80
2022-08-20T05:54:21.663Z,100134.48
2022-08-20T05:56:52.155Z,100138.37
2022-08-20T05:59:24.239Z,100136.98
2022-08-20T06:01:53.799Z,100133.15
2022-08-20T06:04:31.264Z,100138.45
2022-08-20T06:07:06.645Z,100141.81
2022-08-20T06:09:36.378Z,100147.12
2022-08-20T06:12:08.372Z,100146.31
2022-08-20T06:14:38.423Z,100146.92
2022-08-20T06:17:15.283Z,100154.20
2022-08-20T06:19:46.935Z,100160.34
2022-08-20T06:22:18.343Z,100152.88
2022-08-20T06:24:50.305Z,100153.75
2022-08-20T06:27:22.142Z,100157.11
2022-08-20T06:29:52.178Z,100161.88
2022-08-20T06:32:31.965Z,100162.16
2022-08-20T06:34:55.210Z,100165.52
2022-08-20T06:37:30.963Z,100161.06
2022-08-20T06:40:12.103Z,100164.41
2022-08-20T06:42:48.224Z,100176.41
2022-08-20T06:45:19.429Z,100173.69
2022-08-20T06:47:49.955Z,100167.30
2022-08-20T06:50:24.091Z,100162.59
2022-08-20T06:52:54.390Z,100156.51
2022-08-20T06:55:24.025Z,100163.21
2022-08-20T06:58:02.309Z,100159.03
2022-08-20T07:00:32.952Z,100163.77
2022-08-20T07:03:02.140Z,100158.77
2022-08-20T07:05:34.535Z,100157.36
2022-08-20T07:08:04.997Z,100160.98
2022-08-20T07:10:35.251Z,100160.98
2022-08-20T07:13:06.370Z,100156.81
2022-08-20T07:15:38.241Z,100159.88
2022-08-20T07:18:07.845Z,100155.42
2022-08-20T07:20:38.062Z,100166.03
2022-08-20T07:23:08.043Z,100171.06
2022-08-20T07:25:37.038Z,100162.16
2022-08-20T07:28:13.713Z,100162.47
2022-08-20T07:31:12.212Z,100170.28
2022-08-20T07:33:34.067Z,100169.16
2022-08-20T07:36:05.207Z,100169.44
2022-08-20T07:38:35.500Z,100162.72
2022-08-20T07:41:11.324Z,100165.78
2022-08-20T07:43:42.084Z,100164.38
2022-08-20T07:46:12.578Z,100167.16
2022-08-20T07:48:44.965Z,100166.31
2022-08-20T07:51:19.957Z,100166.86
2022-08-20T07:53:55.009Z,100156.23
2022-08-20T07:56:28.133Z,100154.55
2022-08-20T07:59:02.083Z,100155.67
2022-08-20T08:01:34.913Z,100151.20
2022-08-20T08:04:04.794Z,100156.52
2022-08-20T08:06:34.490Z,100156.80
2022-08-20T08:09:10.567Z,100155.39
2022-08-20T08:11:47.001Z,100154.83
2022-08-20T08:14:15.664Z,100152.89
2022-08-20T08:16:45.416Z,100146.45
2022-08-20T08:19:14.833Z,100147.28
2022-08-20T08:21:44.884Z,100146.70
2022-08-20T08:24:20.290Z,100144.73
2022-08-20T08:26:47.054Z,100138.29
2022-08-20T08:29:16.107Z,100138.84
2022-08-20T08:31:46.369Z,100141.36
2022-08-20T08:34:16.613Z,100144.41
2022-08-20T08:36:45.440Z,100141.02
2022-08-20T08:39:14.518Z,100139.57
2022-08-20T08:41:49.690Z,100133.92
2022-08-20T08:44:28.169Z,100135.83
2022-08-20T08:47:00.725Z,100130.46
2022-08-20T08:49:37.289Z,100128.13
2022-08-20T08:52:11.526Z,100136.72
2022-08-20T08:54:45.344Z,100136.70
2022-08-20T08:57:16.339Z,100130.22
2022-08-20T09:00:03.460Z,100122.39
2022-08-20T09:02:21.905Z,100119.00
2022-08-20T09:04:51.849Z,100125.66
2022-08-20T09:07:23.373Z,100126.81
2022-08-20T09:09:53.086Z,100119.55
2022-08-20T09:12:26.856Z,100125.06
2022-08-20T09:14:55.757Z,100126.34
2022-08-20T09:17:24.947Z,100125.33
2022-08-20T09:19:53.963Z,100127.91
2022-08-20T09:22:25.034Z,100123.86
2022-08-20T09:24:55.969Z,100121.56
2022-08-20T09:27:25.364Z,100124.42
2022-08-20T09:29:55.605Z,100130.62
2022-08-20T09:32:24.962Z,100127.55
2022-08-20T09:34:56.482Z,100129.28
2022-08-20T09:37:35.076Z,100131.06
2022-08-20T09:40:00.646Z,100133.09
2022-08-20T09:42:32.104Z,100133.44
2022-08-20T09:45:02.189Z,100133.78
2022-08-20T09:47:31.704Z,100128.21
2022-08-20T09:50:01.115Z,100125.14
2022-08-20T09:52:43.020Z,100133.25
2022-08-20T09:55:35.184Z,100132.41
2022-08-20T09:58:12.215Z,100119.56
2022-08-20T10:00:41.295Z,100121.80
2022-08-20T10:03:10.768Z,100120.41
2022-08-20T10:05:40.438Z,100123.47
2022-08-20T10:08:10.485Z,100126.25
2022-08-20T10:10:39.638Z,100124.55
2022-08-20T10:13:09.579Z,100125.36
2022-08-20T10:15:41.851Z,100123.39
2022-08-20T10:18:12.472Z,100127.56
2022-08-20T10:20:41.650Z,100130.91
2022-08-20T10:23:11.695Z,100132.28
2022-08-20T10:25:41.790Z,100129.72
2022-08-20T10:28:11.873Z,100130.53
2022-08-20T10:30:42.022Z,100132.17
2022-08-20T10:33:11.767Z,100134.16
2022-08-20T10:35:41.594Z,100134.45
2022-08-20T10:38:11.158Z,100127.19
2022-08-20T10:40:41.246Z,100126.92
2022-08-20T10:43:12.266Z,100130.85
2022-08-20T10:45:41.805Z,100134.25
2022-08-20T10:48:11.012Z,100133.17
2022-08-20T10:50:40.293Z,100126.84
2022-08-20T10:53:08.944Z,100125.75
2022-08-20T10:55:38.728Z,100129.16
2022-08-20T10:58:08.453Z,100137.61
2022-08-20T11:00:40.370Z,100129.80
2022-08-20T11:03:10.924Z,100139.63
2022-08-20T11:05:43.020Z,100132.91
2022-08-20T11:08:11.608Z,100133.77
2022-08-20T11:10:41.857Z,100135.45
2022-08-20T11:13:12.447Z,100132.66
2022-08-20T11:15:45.246Z,100127.04
2022-08-20T11:18:14.843Z,100121.69
2022-08-20T11:20:44.497Z,100126.19
2022-08-20T11:23:13.861Z,100116.66
2022-08-20T11:25:42.821Z,100117.47
2022-08-20T11:28:12.856Z,100120.52
2022-08-20T11:30:41.883Z,100113.17
2022-08-20T11:33:11.196Z,100114.23
2022-08-20T11:35:48.101Z,100108.02
2022-08-20T11:38:13.100Z,100113.23
2022-08-20T11:40:42.455Z,100108.98
2022-08-20T11:43:16.227Z,100111.52
2022-08-20T11:45:45.467Z,100108.98
2022-08-20T11:48:15.265Z,100105.28
2022-08-20T11:50:45.235Z,100104.66
2022-08-20T11:53:14.939Z,100097.86
2022-08-20T11:55:45.331Z,100096.97
2022-08-20T11:58:14.394Z,100100.81
2022-08-20T12:00:43.574Z,100096.81
2022-08-20T12:03:13.445Z,100097.24
2022-08-20T12:05:45.007Z,100094.94
2022-08-20T12:08:27.568Z,100091.73
2022-08-20T12:10:45.351Z,100092.52
2022-08-20T12:13:14.111Z,100088.36
2022-08-20T12:15:44.308Z,100092.93
2022-08-20T12:22:17.626Z,100090.38
2022-08-20T12:24:42.965Z,100093.90
2022-08-20T12:27:21.421Z,100095.33
2022-08-20T12:29:52.890Z,100096.50
2022-08-20T12:32:22.776Z,100097.13
2022-08-20T12:34:52.161Z,100100.81
2022-08-20T12:37:23.972Z,100097.48
2022-08-20T12:39:56.225Z,100099.72
2022-08-20T12:42:25.494Z,100101.98
2022-08-20T12:45:02.213Z,100101.44
2022-08-20T12:47:34.073Z,100108.17
2022-08-20T12:50:13.456Z,100110.44
2022-08-20T12:52:43.388Z,100112.94
2022-08-20T12:55:14.214Z,100108.17
2022-08-20T12:57:51.413Z,100106.23
2022-08-20T13:00:28.499Z,100116.63
2022-08-20T13:03:00.014Z,100106.89
2022-08-20T13:05:29.988Z,100116.69
2022-08-20T13:08:00.255Z,100108.02
2022-08-20T13:10:31.556Z,100105.22
2022-08-20T13:13:02.205Z,100097.67
2022-08-20T13:15:32.250Z,100100.77
2022-08-20T13:18:02.561Z,100099.38
2022-08-20T13:20:34.616Z,100100.50
2022-08-20T13:23:07.061Z,100101.07
2022-08-20T13:25:35.795Z,100099.41
2022-08-20T13:28:05.403Z,100102.20
2022-08-20T13:30:38.084Z,100100.23
2022-08-20T13:33:08.272Z,100092.67
2022-08-20T13:35:37.020Z,100101.07
2022-08-20T13:38:06.255Z,100097.73
2022-08-20T13:40:35.795Z,100099.96
2022-08-20T13:43:07.427Z,100100.26
2022-08-20T13:45:37.170Z,100097.72
2022-08-20T13:48:08.290Z,100099.69
2022-08-20T13:50:38.247Z,100096.35
2022-08-20T13:53:07.548Z,100095.49
2022-08-20T13:55:38.564Z,100087.36
2022-08-20T13:58:08.099Z,100086.53
2022-08-20T14:00:37.880Z,100084.30
2022-08-20T14:03:07.172Z,100091.56
2022-08-20T14:05:37.336Z,100089.55
2022-08-20T14:08:14.126Z,100092.29
2022-08-20T14:10:44.451Z,100084.75
2022-08-20T14:13:16.594Z,100092.61
2022-08-20T14:15:46.215Z,100086.48
2022-08-20T14:18:15.363Z,100089.01
2022-08-20T14:20:45.650Z,100089.27
2022-08-20T14:23:14.890Z,100090.67
2022-08-20T14:25:46.468Z,100097.67
2022-08-20T14:28:21.066Z,100096.55
2022-08-20T14:30:52.906Z,100095.71
2022-08-20T14:33:23.623Z,100094.34
2022-08-20T14:35:54.328Z,100096.33
2022-08-20T14:38:23.925Z,100096.62
2022-08-20T14:40:53.825Z,100099.13
2022-08-20T14:43:23.664Z,100091.56
2022-08-20T14:45:52.802Z,100093.27
2022-08-20T14:48:23.724Z,100094.09
2022-08-20T14:50:55.139Z,100089.03
2022-08-20T14:53:24.345Z,100091.52
2022-08-20T14:55:53.349Z,100085.34
2022-08-20T14:58:22.377Z,100081.41
2022-08-20T15:00:52.856Z,100091.52
2022-08-20T15:03:23.554Z,100085.67
2022-08-20T15:05:53.497Z,100083.46
2022-08-20T15:08:23.543Z,100081.23
2022-08-20T15:10:54.437Z,100082.89
2022-08-20T15:13:25.304Z,100080.93
2022-08-20T15:16:16.492Z,100072.80
2022-08-20T15:18:45.877Z,100074.17
2022-08-20T15:21:21.427Z,100073.06
2022-08-20T15:23:49.219Z,100067.77
2022-08-20T15:26:18.551Z,100071.40
2022-08-20T15:28:48.551Z,100069.73
2022-08-20T15:31:18.678Z,100074.22
2022-08-20T15:33:47.719Z,100082.95
2022-08-20T15:36:16.584Z,100083.23
2022-08-20T15:38:45.573Z,100081.86
2022-08-20T15:41:16.575Z,100089.73
2022-08-20T15:43:45.163Z,100085.88
2022-08-20T15:46:15.578Z,100086.42
2022-08-20T15:48:46.490Z,100088.42
2022-08-20T15:51:35.960Z,100079.50
2022-08-20T15:54:15.817Z,100083.16
2022-08-20T15:56:59.446Z,100083.77
2022-08-20T15:59:37.241Z,100100.02
2022-08-20T16:02:27.038Z,100092.48
2022-08-20T16:05:51.420Z,100091.37
2022-08-20T16:09:05.686Z,100097.30
2022-08-20T16:11:53.258Z,100095.44
2022-08-20T16:14:26.622Z,100086.00
2022-08-20T16:17:01.686Z,100092.17
2022-08-20T16:19:56.827Z,100098.95
2022-08-20T16:22:28.440Z,100093.66
2022-08-20T16:24:58.116Z,100098.44
2022-08-20T16:27:47.769Z,100102.08
2022-08-20T16:30:27.179Z,100103.19
2022-08-20T16:33:03.764Z,100111.01
2022-08-20T16:35:40.963Z,100109.61
2022-08-20T16:38:42.924Z,100107.94
2022-08-20T16:41:18.477Z,100111.31
2022-08-20T16:43:54.811Z,100108.24
2022-08-20T16:46:31.673Z,100104.90
2022-08-20T16:49:05.748Z,100104.91
2022-08-20T16:51:43.101Z,100115.00
2022-08-20T16:54:13.474Z,100110.28
2022-08-20T16:56:48.037Z,100116.17
2022-08-20T16:59:26.741Z,100108.64
2022-08-20T17:01:54.650Z,100114.25
2022-08-20T17:04:26.326Z,100117.63
2022-08-20T17:06:55.650Z,100122.39
2022-08-20T17:09:40.486Z,100127.71
2022-08-20T17:12:27.972Z,100127.70
2022-08-20T17:14:59.354Z,100132.16
2022-08-20T17:17:36.657Z,100130.49
2022-08-20T17:20:20.251Z,100131.33
2022-08-20T17:22:53.426Z,100136.35
2022-08-20T17:25:35.462Z,100131.33
2022-08-20T17:28:15.907Z,100137.48
2022-08-20T17:30:45.919Z,100134.42
2022-08-20T17:33:32.333Z,100136.95
2022-08-20T17:36:06.630Z,100142.55
2022-08-20T17:38:50.524Z,100145.35
2022-08-20T17:41:23.775Z,100144.77
2022-08-20T17:44:08.534Z,100138.89
2022-08-20T17:46:44.610Z,100141.69
2022-08-20T17:49:19.079Z,100154.28
2022-08-20T17:51:54.158Z,100158.19
2022-08-20T17:54:27.029Z,100151.19
2022-08-20T17:57:05.212Z,100157.61
2022-08-20T18:00:00.081Z,100156.80
2022-08-20T18:02:13.178Z,100152.58
2022-08-20T18:04:42.406Z,100156.80
2022-08-20T18:07:23.052Z,100156.52
2022-08-20T18:10:16.211Z,100151.48
2022-08-20T18:13:12.005Z,100160.42
2022-08-20T18:15:46.757Z,100159.56
2022-08-20T18:18:33.300Z,100155.67
2022-08-20T18:21:49.499Z,100157.63
2022-08-20T18:24:32.903Z,100148.42
2022-08-20T18:27:03.388Z,100147.59
2022-08-20T18:29:36.990Z,100147.02
2022-08-20T18:32:10.259Z,100144.52
2022-08-20T18:34:41.752Z,100150.94
2022-08-20T18:37:19.730Z,100147.03
2022-08-20T18:39:51.122Z,100143.13
2022-08-20T18:42:36.336Z,100138.94
2022-08-20T18:45:07.010Z,100138.66
2022-08-20T18:47:42.240Z,100133.36
2022-08-20T18:50:40.767Z,100128.61
2022-08-20T18:53:24.313Z,100135.87
2022-08-20T18:56:09.286Z,100131.70
2022-08-20T18:59:01.549Z,100129.75
2022-08-20T19:01:32.013Z,100129.75
2022-08-20T19:04:03.069Z,100137.02
2022-08-20T19:06:44.279Z,100136.45
2022-08-20T19:10:12.940Z,100128.63
2022-08-20T19:13:05.180Z,100125.83
2022-08-20T19:15:40.272Z,100130.58
2022-08-20T19:18:24.311Z,100129.19
2022-08-20T19:21:01.516Z,100133.66
2022-08-20T19:23:36.057Z,100122.50
2022-08-20T19:26:25.158Z,100118.32
2022-08-20T19:28:52.570Z,100112.19
2022-08-20T19:31:29.781Z,100108.00
2022-08-20T19:34:21.926Z,100112.19
2022-08-20T19:36:46.430Z,100111.64
2022-08-20T19:39:19.872Z,100117.23
2022-08-20T19:42:07.102Z,100109.14
2022-08-20T19:44:47.003Z,100117.80
2022-08-20T19:47:43.864Z,100111.39
2022-08-20T19:50:25.187Z,100115.86
2022-08-20T19:53:03.145Z,100109.72
2022-08-20T19:55:35.139Z,100108.05
2022-08-20T19:58:25.890Z,100106.92
2022-08-20T20:00:50.035Z,100103.58
2022-08-20T20:03:24.160Z,100097.16
2022-08-20T20:06:17.483Z,100112.52
2022-08-20T20:09:03.862Z,100108.30
2022-08-20T20:11:38.045Z,100107.75
2022-08-20T20:14:11.288Z,100115.01
2022-08-20T20:16:45.361Z,100114.45
2022-08-20T20:19:26.262Z,100116.41
2022-08-20T20:21:50.712Z,100114.45
2022-08-20T20:24:32.612Z,100106.36
2022-08-20T20:27:02.273Z,100106.08
2022-08-20T20:29:36.289Z,100094.91
2022-08-20T20:32:16.331Z,100094.36
2022-08-20T20:34:55.706Z,100087.66
2022-08-20T20:37:39.183Z,100089.03
2022-08-20T20:40:19.018Z,100091.55
2022-08-20T20:43:01.136Z,100095.45
2022-08-20T20:45:44.135Z,100085.41
2022-08-20T20:48:21.011Z,100085.41
2022-08-20T20:50:51.320Z,100093.23
2022-08-20T20:53:53.111Z,100080.41
2022-08-20T20:56:07.450Z,100082.08
2022-08-20T20:58:38.235Z,100069.80
2022-08-20T21:01:07.457Z,100067.57
2022-08-20T21:03:36.108Z,100067.02
2022-08-20T21:06:05.290Z,100068.41
2022-08-20T21:08:35.356Z,100071.20
2022-08-20T21:11:05.409Z,100064.50
2022-08-20T21:13:35.043Z,100058.92
2022-08-20T21:16:07.058Z,100056.97
2022-08-20T21:18:37.242Z,100055.86
2022-08-20T21:21:08.142Z,100056.98
2022-08-20T21:23:40.490Z,100052.23
2022-08-20T21:26:10.105Z,100047.22
2022-08-20T21:28:39.734Z,100052.52
2022-08-20T21:31:09.083Z,100045.83
2022-08-20T21:33:39.551Z,100036.63
2022-08-20T21:36:09.169Z,100038.86
2022-08-20T21:38:39.533Z,100040.25
2022-08-20T21:41:09.472Z,100035.23
2022-08-20T21:43:39.788Z,100036.08
2022-08-20T21:46:12.725Z,100043.33
2022-08-20T21:48:47.676Z,100042.48
2022-08-20T21:51:15.318Z,100041.09
2022-08-20T21:53:45.115Z,100035.52
2022-08-20T21:56:14.422Z,100030.47
2022-08-20T21:58:45.545Z,100031.58
2022-08-20T22:01:15.230Z,100030.45
2022-08-20T22:03:44.615Z,100022.94
2022-08-20T22:06:15.391Z,100025.16
2022-08-20T22:08:45.329Z,100016.52
2022-08-20T22:11:15.385Z,100017.08
2022-08-20T22:13:46.987Z,100018.47
2022-08-20T22:16:18.180Z,100021.81
2022-08-20T22:18:48.057Z,100012.03
2022-08-20T22:21:25.370Z,100011.47
2022-08-20T22:23:57.599Z,100012.02
2022-08-20T22:26:27.234Z,100010.34
2022-08-20T22:28:58.216Z,100015.92
2022-08-20T22:31:30.595Z,100017.88
2022-08-20T22:34:00.608Z,100016.77
2022-08-20T22:36:31.753Z,100016.77
2022-08-20T22:39:01.862Z,100014.53
2022-08-20T22:41:31.062Z,100021.21
2022-08-20T22:44:00.911Z,100017.03
2022-08-20T22:46:37.494Z,100014.25
2022-08-20T22:49:10.624Z,100007.28
2022-08-20T22:51:41.336Z,100005.05
2022-08-20T22:54:12.472Z,100000.31
2022-08-20T22:56:42.083Z,100007.55
2022-08-20T22:59:13.920Z,100003.94
2022-08-20T23:01:45.754Z,99995.58
2022-08-20T23:04:31.334Z,100001.98
2022-08-20T23:07:01.931Z,99996.97
2022-08-20T23:09:32.363Z,100003.37
2022-08-20T23:12:01.430Z,99993.06
2022-08-20T23:14:31.491Z,100003.08
2022-08-20T23:17:08.083Z,99998.06
2022-08-20T23:19:38.000Z,99995.55
2022-08-20T23:22:07.998Z,100002.50
2022-08-20T23:24:38.593Z,100003.61
2022-08-20T23:27:08.611Z,100001.95
2022-08-20T23:29:39.624Z,100003.06
2022-08-20T23:32:11.686Z,100014.20
2022-08-20T23:34:41.367Z,100008.08
2022-08-20T23:37:11.023Z,100012.81
2022-08-20T23:39:39.994Z,100013.08
2022-08-20T23:42:10.902Z,100000.55
2022-08-20T23:44:40.554Z,100007.80
2022-08-20T23:47:10.787Z,100004.45
2022-08-20T23:49:40.277Z,100004.73
2022-08-20T23:52:10.136Z,100003.89
2022-08-20T23:54:39.537Z,100001.95
2022-08-20T23:57:09.852Z,100005.84
2022-08-20T23:59:40.074Z,100003.34
